WXM80 ListenWXM80 Stop

You find our weather info also at:

UK Metoffice

WeatherCloud

Weather Underground

Northeastern Weather Network

AWEKAS

Citizen Weather Observer Program (CWOP)

HAMweather, WeatherForYou, PWS Weather


Weather Underground History page Text

Daily Summary for June 27, 2017 Units:  English    Metric   Both
« Previous Day
Next Day »
Daily Weekly Monthly Yearly Custom
  High: Low: Average:
Temperature: 79.5 °F 61.6 °F 68.7 °F
Dew Point: 68.7 °F 55.6 °F 61.1 °F
Humidity: 95 % 52 % 78 %
Wind Speed: 5.6 mph 0.0 mph 0.7 mph
Wind Gust: 10.4 mph - -
Wind:- - South
Pressure: 30.00 in 29.86 in -
Precipitation: 0.10 in    
Historical Graphs
 
 
Tabular Data for June 27, 2017
Time Temperature Dew Point Pressure Wind Wind Speed Wind Gust Humidity Rainfall Rate (Hourly)
00:02 66.4 °F 61.4 °F 29.94 in Calm   1.0 mph 84 % 0.00 in
00:07 66.2 °F 61.2 °F 29.94 in Calm     84 % 0.00 in
00:12 66.1 °F 61.1 °F 29.94 in WSW 0.1 mph 1.2 mph 84 % 0.00 in
00:17 65.9 °F 60.9 °F 29.94 in Calm     84 % 0.00 in
00:22 65.8 °F 60.8 °F 29.94 in Calm   1.2 mph 84 % 0.00 in
00:27 65.6 °F 60.3 °F 29.94 in Calm     83 % 0.00 in
00:32 65.5 °F 60.2 °F 29.94 in Calm   1.2 mph 83 % 0.00 in
00:37 65.3 °F 60.0 °F 29.94 in SSE 0.1 mph 2.3 mph 83 % 0.00 in
00:43 65.2 °F 59.9 °F 29.94 in Calm     83 % 0.00 in
00:48 65.1 °F 59.8 °F 29.94 in Calm     83 % 0.00 in
00:53 65.0 °F 59.4 °F 29.94 in Calm     82 % 0.00 in
00:58 64.9 °F 59.3 °F 29.94 in Calm     82 % 0.00 in
01:03 64.8 °F 59.2 °F 29.94 in Calm     82 % 0.00 in
01:08 64.7 °F 59.1 °F 29.94 in Calm     82 % 0.00 in
01:13 64.5 °F 58.9 °F 29.93 in Calm   2.3 mph 82 % 0.00 in
01:18 64.4 °F 58.8 °F 29.93 in SW 1.0 mph 3.5 mph 82 % 0.00 in
01:23 64.3 °F 58.7 °F 29.93 in Calm     82 % 0.00 in
01:28 64.2 °F 58.6 °F 29.94 in Calm     82 % 0.00 in
01:33 64.1 °F 58.5 °F 29.94 in SW 0.3 mph 1.2 mph 82 % 0.00 in
01:38 64.0 °F 58.7 °F 29.93 in Calm     83 % 0.00 in
01:43 63.8 °F 58.5 °F 29.93 in Calm     83 % 0.00 in
01:48 63.8 °F 58.5 °F 29.93 in Calm   1.2 mph 83 % 0.00 in
01:53 63.6 °F 58.3 °F 29.93 in SW 0.4 mph 1.2 mph 83 % 0.00 in
01:58 63.5 °F 58.2 °F 29.93 in Calm   1.2 mph 83 % 0.00 in
02:03 63.4 °F 58.1 °F 29.93 in Calm     83 % 0.00 in
02:08 63.3 °F 58.0 °F 29.93 in SW 0.8 mph 2.3 mph 83 % 0.00 in
02:13 63.2 °F 58.3 °F 29.93 in SW 0.2 mph 1.2 mph 84 % 0.00 in
02:18 63.2 °F 58.3 °F 29.93 in SW 0.3 mph 2.3 mph 84 % 0.00 in
02:23 63.2 °F 58.3 °F 29.93 in Calm   1.2 mph 84 % 0.00 in
02:28 63.2 °F 58.6 °F 29.93 in SW 0.1 mph 2.3 mph 85 % 0.00 in
02:33 63.2 °F 58.6 °F 29.93 in Calm     85 % 0.00 in
02:38 63.2 °F 58.6 °F 29.93 in SW 0.1 mph 1.2 mph 85 % 0.00 in
02:44 63.1 °F 58.2 °F 29.93 in SW 0.6 mph 2.3 mph 84 % 0.00 in
02:49 63.1 °F 57.9 °F 29.95 in WNW 3.7 mph 6.0 mph 83 % 0.00 in
02:54 63.2 °F 57.9 °F 29.95 in WSW 4.1 mph 6.9 mph 83 % 0.00 in
02:59 63.4 °F 58.1 °F 29.95 in Calm   2.3 mph 83 % 0.00 in
03:04 63.5 °F 58.2 °F 29.95 in West 0.4 mph 2.3 mph 83 % 0.00 in
03:09 63.7 °F 58.8 °F 29.95 in West 0.6 mph 3.5 mph 84 % 0.00 in
03:14 63.9 °F 59.6 °F 29.95 in Calm   1.0 mph 86 % 0.00 in
03:19 64.1 °F 59.8 °F 29.95 in Calm     86 % 0.00 in
03:24 64.2 °F 60.2 °F 29.95 in Calm     87 % 0.00 in
03:29 64.3 °F 60.3 °F 29.95 in Calm     87 % 0.00 in
03:34 64.3 °F 60.3 °F 29.95 in WNW 0.1 mph 2.3 mph 87 % 0.00 in
03:39 64.3 °F 60.7 °F 29.95 in WNW 0.2 mph 1.2 mph 88 % 0.00 in
03:40 64.3 °F 60.7 °F 29.95 in Calm   1.2 mph 88 % 0.00 in
03:45 64.2 °F 60.6 °F 29.95 in WNW 0.1 mph 1.2 mph 88 % 0.00 in
03:50 64.2 °F 60.6 °F 29.95 in WNW 0.3 mph 2.3 mph 88 % 0.00 in
03:56 64.1 °F 60.5 °F 29.95 in Calm   2.0 mph 88 % 0.00 in
04:01 63.9 °F 60.0 °F 29.95 in WNW 1.3 mph 3.5 mph 87 % 0.00 in
04:06 63.8 °F 59.9 °F 29.95 in WNW 0.3 mph 3.5 mph 87 % 0.00 in
04:11 63.6 °F 59.7 °F 29.95 in Calm     87 % 0.00 in
04:16 63.5 °F 59.2 °F 29.95 in WNW 0.4 mph 3.0 mph 86 % 0.00 in
04:21 63.3 °F 59.0 °F 29.95 in WNW 1.3 mph 2.3 mph 86 % 0.00 in
04:26 63.3 °F 58.7 °F 29.94 in Calm     85 % 0.00 in
04:31 63.2 °F 58.6 °F 29.94 in NNW 1.1 mph 3.5 mph 85 % 0.00 in
04:36 63.1 °F 58.5 °F 29.94 in Calm   1.2 mph 85 % 0.00 in
04:41 63.1 °F 58.5 °F 29.95 in NNW 0.4 mph 2.0 mph 85 % 0.00 in
04:46 63.0 °F 58.4 °F 29.94 in NNW 0.6 mph 2.3 mph 85 % 0.00 in
04:51 63.0 °F 58.4 °F 29.95 in NNW 0.2 mph 1.2 mph 85 % 0.00 in
04:56 63.0 °F 58.4 °F 29.94 in NNW 0.3 mph 1.2 mph 85 % 0.00 in
05:01 63.0 °F 58.4 °F 29.94 in NNW 0.3 mph 2.3 mph 85 % 0.00 in
05:06 63.0 °F 58.4 °F 29.95 in Calm   1.2 mph 85 % 0.00 in
05:11 63.0 °F 58.4 °F 29.94 in Calm     85 % 0.00 in
05:16 63.0 °F 58.4 °F 29.95 in NNW 0.3 mph 1.2 mph 85 % 0.00 in
05:21 63.0 °F 58.7 °F 29.95 in NNW 0.8 mph 1.2 mph 86 % 0.00 in
05:26 63.1 °F 58.8 °F 29.95 in NNW 0.8 mph 2.3 mph 86 % 0.00 in
05:31 63.1 °F 59.2 °F 29.96 in NNW 0.2 mph 1.2 mph 87 % 0.00 in
05:36 63.2 °F 59.6 °F 29.97 in NNW 0.1 mph 1.2 mph 88 % 0.00 in
05:41 63.3 °F 60.0 °F 29.98 in NW 0.5 mph 2.3 mph 89 % 0.00 in
05:46 63.4 °F 60.1 °F 29.98 in North 0.5 mph 1.2 mph 89 % 0.00 in
05:51 63.4 °F 60.1 °F 29.98 in North 1.7 mph 4.6 mph 89 % 0.00 in
05:56 63.4 °F 60.1 °F 29.98 in North 1.4 mph 3.5 mph 89 % 0.00 in
06:01 63.3 °F 59.7 °F 29.99 in North 0.9 mph 1.0 mph 88 % 0.00 in
06:07 63.3 °F 59.7 °F 29.99 in WNW 4.0 mph 4.0 mph 88 % 0.00 in
06:12 63.2 °F 59.6 °F 29.99 in NNE 0.1 mph 3.5 mph 88 % 0.00 in
06:17 63.2 °F 59.6 °F 30.00 in NNE 1.6 mph 5.8 mph 88 % 0.00 in
06:22 63.1 °F 59.8 °F 29.99 in West 1.2 mph 4.6 mph 89 % 0.00 in
06:27 63.0 °F 59.4 °F 29.99 in ENE 0.7 mph 2.3 mph 88 % 0.00 in
06:32 62.9 °F 59.3 °F 29.99 in WNW 1.8 mph 4.6 mph 88 % 0.00 in
06:37 62.8 °F 59.2 °F 29.99 in WNW 0.2 mph 1.2 mph 88 % 0.01 in
06:42 62.7 °F 59.1 °F 29.99 in NW 0.2 mph 2.0 mph 88 % 0.01 in
06:47 62.6 °F 59.3 °F 29.99 in WNW 0.3 mph 2.0 mph 89 % 0.01 in
06:52 62.5 °F 59.2 °F 29.99 in Calm     89 % 0.01 in
06:57 62.5 °F 59.2 °F 29.99 in WNW 0.2 mph 1.0 mph 89 % 0.01 in
07:02 62.4 °F 59.1 °F 29.99 in Calm     89 % 0.02 in
07:07 62.3 °F 59.0 °F 30.00 in Calm     89 % 0.05 in
07:12 62.2 °F 59.2 °F 29.99 in Calm     90 % 0.07 in
07:17 62.2 °F 59.5 °F 29.98 in Calm     91 % 0.08 in
07:22 62.1 °F 59.4 °F 29.97 in Calm     91 % 0.09 in
07:27 62.1 °F 59.7 °F 29.96 in Calm   1.2 mph 92 % 0.10 in
07:32 61.9 °F 59.5 °F 29.96 in NE 0.2 mph 1.2 mph 92 % 0.10 in
07:37 61.7 °F 59.7 °F 29.96 in NNE 0.1 mph 1.2 mph 93 % 0.09 in
07:42 61.6 °F 59.6 °F 29.96 in Calm     93 % 0.09 in
07:47 61.6 °F 59.6 °F 29.97 in Calm     93 % 0.09 in
07:52 61.6 °F 59.6 °F 29.97 in Calm     93 % 0.09 in
07:57 61.6 °F 59.6 °F 29.97 in Calm     93 % 0.09 in
08:02 61.7 °F 60.0 °F 29.97 in Calm   1.2 mph 94 % 0.08 in
08:07 61.8 °F 60.1 °F 29.97 in Calm   1.2 mph 94 % 0.05 in
08:12 62.0 °F 60.3 °F 29.97 in NE 0.6 mph 1.2 mph 94 % 0.03 in
08:17 62.1 °F 60.7 °F 29.97 in NW 0.7 mph 1.2 mph 95 % 0.02 in
08:22 62.3 °F 60.8 °F 29.97 in ENE 0.3 mph 2.3 mph 95 % 0.01 in
08:27 62.4 °F 60.9 °F 29.96 in ENE 0.2 mph 1.2 mph 95 % 0.00 in
08:32 62.6 °F 61.1 °F 29.96 in West 0.2 mph 1.2 mph 95 % 0.00 in
08:37 62.8 °F 61.3 °F 29.95 in NW 0.1 mph 1.2 mph 95 % 0.00 in
08:42 63.0 °F 61.5 °F 29.95 in SSE 0.2 mph 1.2 mph 95 % 0.00 in
08:47 63.3 °F 61.8 °F 29.95 in East 0.4 mph 2.3 mph 95 % 0.00 in
08:52 63.5 °F 62.0 °F 29.95 in ENE 0.9 mph 2.3 mph 95 % 0.00 in
08:57 63.7 °F 62.2 °F 29.95 in ENE 0.6 mph 2.3 mph 95 % 0.00 in
09:02 63.8 °F 62.0 °F 29.95 in ENE 0.3 mph 2.3 mph 94 % 0.00 in
09:07 63.9 °F 62.1 °F 29.95 in Calm   1.2 mph 94 % 0.00 in
09:13 64.0 °F 62.2 °F 29.95 in SSW 0.6 mph 3.5 mph 94 % 0.00 in
09:18 64.1 °F 62.0 °F 29.95 in ENE 1.5 mph 3.5 mph 93 % 0.00 in
09:21 64.1 °F 62.0 °F 29.95 in Calm   1.2 mph 93 % 0.00 in
09:26 64.1 °F 61.7 °F 29.95 in NE 0.7 mph 2.0 mph 92 % 0.00 in
09:31 64.3 °F 61.9 °F 29.95 in NE 2.2 mph 3.5 mph 92 % 0.00 in
09:36 64.4 °F 62.0 °F 29.96 in North 3.1 mph 5.8 mph 92 % 0.00 in
09:41 64.7 °F 62.0 °F 29.96 in East 2.3 mph 5.8 mph 91 % 0.00 in
09:46 65.0 °F 62.3 °F 29.96 in NNE 2.8 mph 5.8 mph 91 % 0.00 in
09:51 65.3 °F 62.6 °F 29.96 in NE 1.5 mph 3.5 mph 91 % 0.00 in
09:56 65.8 °F 63.1 °F 29.96 in NNE 1.3 mph 5.0 mph 91 % 0.00 in
10:01 66.3 °F 63.0 °F 29.97 in Calm   3.5 mph 89 % 0.00 in
10:06 66.6 °F 62.9 °F 29.96 in NE 0.8 mph 4.0 mph 88 % 0.00 in
10:11 67.0 °F 63.3 °F 29.97 in NNE 1.4 mph 3.5 mph 88 % 0.00 in
10:16 67.2 °F 62.9 °F 29.96 in ENE 0.4 mph 1.2 mph 86 % 0.00 in
10:21 67.4 °F 62.7 °F 29.96 in SW 0.4 mph 1.2 mph 85 % 0.00 in
10:26 67.3 °F 62.3 °F 29.97 in North 0.6 mph 3.0 mph 84 % 0.00 in
10:31 67.3 °F 62.3 °F 29.97 in NE 0.1 mph 1.2 mph 84 % 0.00 in
10:36 67.2 °F 62.2 °F 29.97 in NNE 1.5 mph 3.5 mph 84 % 0.00 in
10:37 67.2 °F 62.2 °F 29.97 in NNE 1.6 mph 3.5 mph 84 % 0.00 in
10:42 67.1 °F 62.1 °F 29.96 in ENE 0.1 mph 1.2 mph 84 % 0.00 in
10:47 67.1 °F 62.4 °F 29.96 in Calm     85 % 0.00 in
10:52 66.9 °F 61.9 °F 29.97 in NE 0.2 mph 1.2 mph 84 % 0.00 in
10:57 66.8 °F 62.1 °F 29.96 in NE 0.8 mph 2.3 mph 85 % 0.00 in
11:02 66.9 °F 62.6 °F 29.97 in Calm     86 % 0.00 in
11:07 66.9 °F 62.2 °F 29.96 in NE 0.2 mph 1.2 mph 85 % 0.00 in
11:12 67.0 °F 62.0 °F 29.95 in NE 0.1 mph 1.2 mph 84 % 0.00 in
11:17 67.1 °F 62.4 °F 29.96 in ENE 0.1 mph   85 % 0.00 in
11:22 67.8 °F 64.1 °F 29.96 in Calm     88 % 0.00 in
11:27 68.6 °F 64.6 °F 29.96 in NNE 2.0 mph 3.5 mph 87 % 0.00 in
11:32 69.1 °F 63.7 °F 29.96 in ENE 0.8 mph 2.3 mph 83 % 0.00 in
11:37 69.5 °F 63.8 °F 29.96 in NNE 1.0 mph 2.3 mph 82 % 0.00 in
11:42 70.4 °F 65.7 °F 29.96 in NE 0.6 mph 3.5 mph 85 % 0.00 in
11:47 71.2 °F 64.0 °F 29.96 in North 1.2 mph 2.3 mph 78 % 0.00 in
11:52 72.0 °F 65.5 °F 29.96 in ENE 1.4 mph 3.5 mph 80 % 0.00 in
11:57 72.7 °F 65.1 °F 29.96 in North 0.9 mph 4.6 mph 77 % 0.00 in
12:02 73.5 °F 66.2 °F 29.95 in North 1.1 mph 2.3 mph 78 % 0.00 in
12:07 74.0 °F 65.6 °F 29.95 in NNE 1.3 mph 3.0 mph 75 % 0.00 in
12:12 74.6 °F 65.8 °F 29.94 in NE 1.1 mph 2.3 mph 74 % 0.00 in
12:18 75.0 °F 65.4 °F 29.94 in East 1.9 mph 3.5 mph 72 % 0.00 in
12:23 75.3 °F 65.6 °F 29.94 in NE 1.0 mph 3.5 mph 72 % 0.00 in
12:28 75.7 °F 64.8 °F 29.93 in ENE 2.1 mph 3.5 mph 69 % 0.00 in
12:33 75.6 °F 64.7 °F 29.94 in NNE 2.3 mph 4.6 mph 69 % 0.00 in
12:38 75.9 °F 65.0 °F 29.94 in North 1.6 mph 4.6 mph 69 % 0.00 in
12:43 76.2 °F 65.3 °F 29.94 in NE 1.1 mph 2.3 mph 69 % 0.00 in
12:48 76.5 °F 65.6 °F 29.94 in NE 2.6 mph 4.6 mph 69 % 0.00 in
12:53 76.3 °F 64.1 °F 29.94 in NNE 0.3 mph 3.5 mph 66 % 0.00 in
12:58 75.5 °F 62.9 °F 29.94 in East 1.2 mph 3.5 mph 65 % 0.00 in
13:03 74.3 °F 63.9 °F 29.93 in ENE 0.3 mph 1.2 mph 70 % 0.00 in
13:08 74.3 °F 65.9 °F 29.93 in Calm   1.2 mph 75 % 0.00 in
13:13 75.0 °F 67.3 °F 29.93 in East 0.1 mph 1.0 mph 77 % 0.00 in
13:18 75.8 °F 66.1 °F 29.93 in North 0.2 mph 2.3 mph 72 % 0.00 in
13:23 76.4 °F 66.7 °F 29.93 in NE 2.0 mph 4.6 mph 72 % 0.00 in
13:28 76.7 °F 66.2 °F 29.93 in NNE 1.0 mph 3.5 mph 70 % 0.00 in
13:33 77.2 °F 66.2 °F 29.92 in North 1.2 mph 3.5 mph 69 % 0.00 in
13:34 77.3 °F 65.5 °F 29.92 in North 2.1 mph 3.5 mph 67 % 0.00 in
13:40 77.3 °F 65.5 °F 29.92 in NNE 1.6 mph 3.5 mph 67 % 0.00 in
13:45 77.8 °F 67.2 °F 29.92 in NE 0.8 mph 3.5 mph 70 % 0.00 in
13:50 78.2 °F 66.8 °F 29.91 in SSW 0.8 mph 2.3 mph 68 % 0.00 in
13:55 78.3 °F 66.0 °F 29.91 in ENE 1.0 mph 2.3 mph 66 % 0.00 in
14:00 77.9 °F 65.2 °F 29.91 in NE 1.2 mph 3.5 mph 65 % 0.00 in
14:05 77.3 °F 64.6 °F 29.91 in NE 1.0 mph 2.3 mph 65 % 0.00 in
14:10 76.7 °F 64.0 °F 29.91 in East 1.3 mph 2.3 mph 65 % 0.00 in
14:15 76.5 °F 65.1 °F 29.91 in NE 1.0 mph 3.5 mph 68 % 0.00 in
14:20 76.8 °F 65.9 °F 29.91 in NE 0.5 mph 3.5 mph 69 % 0.00 in
14:25 77.1 °F 65.7 °F 29.90 in NE 0.8 mph 2.3 mph 68 % 0.00 in
14:30 77.4 °F 65.6 °F 29.90 in NE 1.5 mph 2.3 mph 67 % 0.00 in
14:35 77.5 °F 65.2 °F 29.89 in ENE 0.8 mph 2.0 mph 66 % 0.00 in
14:40 77.7 °F 65.9 °F 29.89 in NE 1.3 mph 3.5 mph 67 % 0.00 in
14:45 77.7 °F 65.4 °F 29.89 in ENE 1.6 mph 3.5 mph 66 % 0.00 in
14:50 77.9 °F 67.3 °F 29.89 in ENE 0.5 mph 2.3 mph 70 % 0.00 in
14:55 77.8 °F 66.0 °F 29.89 in ENE 1.0 mph 2.3 mph 67 % 0.00 in
15:00 77.8 °F 65.5 °F 29.89 in ESE 1.2 mph 3.5 mph 66 % 0.00 in
15:05 77.8 °F 66.8 °F 29.89 in NE 0.2 mph 1.2 mph 69 % 0.00 in
15:10 78.0 °F 66.6 °F 29.88 in NE 1.7 mph 2.3 mph 68 % 0.00 in
15:15 77.8 °F 66.0 °F 29.88 in NE 0.2 mph 1.2 mph 67 % 0.00 in
15:20 77.8 °F 66.8 °F 29.88 in Calm   1.2 mph 69 % 0.00 in
15:25 78.2 °F 67.2 °F 29.88 in Calm   1.2 mph 69 % 0.00 in
15:30 78.4 °F 67.0 °F 29.88 in NE 1.9 mph 2.3 mph 68 % 0.00 in
15:35 78.3 °F 66.9 °F 29.88 in NE 0.2 mph 3.5 mph 68 % 0.00 in
15:41 78.5 °F 67.5 °F 29.88 in Calm   1.0 mph 69 % 0.00 in
15:46 78.8 °F 67.3 °F 29.88 in Calm   1.0 mph 68 % 0.00 in
15:51 79.2 °F 66.8 °F 29.88 in Calm   1.0 mph 66 % 0.00 in
15:56 79.5 °F 67.1 °F 29.88 in Calm   1.0 mph 66 % 0.00 in
16:01 79.4 °F 66.2 °F 29.88 in Calm     64 % 0.00 in
16:06 79.3 °F 66.1 °F 29.88 in WNW 0.1 mph 2.3 mph 64 % 0.00 in
16:11 78.9 °F 66.6 °F 29.88 in WNW 0.4 mph 2.3 mph 66 % 0.00 in
16:16 78.5 °F 68.7 °F 29.88 in Calm     72 % 0.00 in
16:21 78.2 °F 67.6 °F 29.87 in Calm   1.0 mph 70 % 0.00 in
16:26 78.3 °F 68.1 °F 29.87 in West 1.5 mph 4.0 mph 71 % 0.00 in
16:31 78.3 °F 65.6 °F 29.87 in SE 1.8 mph 3.5 mph 65 % 0.00 in
16:36 78.2 °F 64.1 °F 29.87 in SE 2.7 mph 5.8 mph 62 % 0.00 in
16:41 78.0 °F 65.7 °F 29.86 in SE 0.7 mph 4.6 mph 66 % 0.00 in
16:46 78.0 °F 64.4 °F 29.86 in SSW 1.3 mph 3.5 mph 63 % 0.00 in
16:51 78.2 °F 64.1 °F 29.87 in South 2.7 mph 5.0 mph 62 % 0.00 in
16:56 78.4 °F 62.9 °F 29.86 in SSW 1.8 mph 4.6 mph 59 % 0.00 in
17:01 78.6 °F 63.6 °F 29.87 in WSW 1.8 mph 3.5 mph 60 % 0.00 in
17:06 78.8 °F 62.3 °F 29.87 in WSW 1.3 mph 3.5 mph 57 % 0.00 in
17:11 78.8 °F 60.2 °F 29.87 in SW 5.6 mph 8.1 mph 53 % 0.00 in
17:16 78.6 °F 60.0 °F 29.87 in SW 4.5 mph 5.8 mph 53 % 0.00 in
17:21 78.6 °F 60.0 °F 29.87 in SW 3.2 mph 4.0 mph 53 % 0.00 in
17:26 78.5 °F 59.4 °F 29.87 in SW 1.9 mph 4.6 mph 52 % 0.00 in
17:31 78.4 °F 61.4 °F 29.87 in SSW 1.8 mph 3.5 mph 56 % 0.00 in
17:37 78.2 °F 62.7 °F 29.87 in SE 1.1 mph 4.6 mph 59 % 0.00 in
17:42 78.1 °F 63.1 °F 29.87 in SE 1.6 mph 6.9 mph 60 % 0.00 in
17:47 77.8 °F 62.8 °F 29.87 in SW 2.3 mph 6.9 mph 60 % 0.00 in
17:52 77.6 °F 61.7 °F 29.87 in SW 1.0 mph 3.5 mph 58 % 0.00 in
17:57 77.5 °F 62.5 °F 29.86 in East 0.6 mph 6.9 mph 60 % 0.00 in
18:02 77.2 °F 61.8 °F 29.86 in SW 1.3 mph 4.0 mph 59 % 0.00 in
18:07 77.0 °F 61.1 °F 29.86 in SE 1.0 mph 3.5 mph 58 % 0.00 in
18:12 76.8 °F 61.9 °F 29.86 in SSW 2.3 mph 4.0 mph 60 % 0.00 in
18:17 76.5 °F 61.1 °F 29.86 in SE 2.2 mph 6.9 mph 59 % 0.00 in
18:22 76.2 °F 61.3 °F 29.87 in SW 3.1 mph 5.8 mph 60 % 0.00 in
18:27 75.9 °F 61.5 °F 29.87 in SW 0.7 mph 2.3 mph 61 % 0.00 in
18:32 75.5 °F 61.1 °F 29.87 in SW 0.1 mph 1.2 mph 61 % 0.00 in
18:37 75.2 °F 60.8 °F 29.87 in SW 0.7 mph 1.2 mph 61 % 0.00 in
18:42 74.9 °F 60.5 °F 29.87 in Calm   1.2 mph 61 % 0.00 in
18:47 74.6 °F 60.3 °F 29.88 in West 1.2 mph 3.5 mph 61 % 0.00 in
18:52 74.2 °F 59.9 °F 29.89 in NNE 4.1 mph 10.4 mph 61 % 0.00 in
18:57 73.6 °F 59.8 °F 29.89 in North 3.0 mph 5.8 mph 62 % 0.00 in
19:02 73.1 °F 60.2 °F 29.90 in NW 1.8 mph 2.3 mph 64 % 0.00 in
19:07 72.9 °F 62.1 °F 29.90 in WSW 2.7 mph 6.0 mph 69 % 0.00 in
19:12 72.5 °F 61.7 °F 29.89 in SSW 1.9 mph 6.9 mph 69 % 0.00 in
19:17 72.1 °F 61.8 °F 29.89 in West 0.2 mph 1.2 mph 70 % 0.00 in
19:18 72.1 °F 61.8 °F 29.89 in SSW 0.3 mph 2.0 mph 70 % 0.00 in
19:23 71.7 °F 61.4 °F 29.89 in SE 0.3 mph 2.3 mph 70 % 0.00 in
19:28 71.4 °F 61.1 °F 29.89 in SSW 0.4 mph 3.5 mph 70 % 0.00 in
19:33 71.0 °F 60.7 °F 29.90 in Calm     70 % 0.00 in
19:38 70.7 °F 60.8 °F 29.90 in SSW 1.3 mph 3.5 mph 71 % 0.00 in
19:43 70.5 °F 60.2 °F 29.90 in WNW 0.6 mph 2.3 mph 70 % 0.00 in
19:48 70.2 °F 59.6 °F 29.90 in Calm   1.2 mph 69 % 0.00 in
19:53 70.0 °F 59.0 °F 29.90 in SSW 2.2 mph 4.6 mph 68 % 0.00 in
19:58 69.7 °F 58.7 °F 29.91 in West 0.8 mph 3.5 mph 68 % 0.00 in
20:03 69.5 °F 58.1 °F 29.91 in WNW 0.7 mph 3.5 mph 67 % 0.00 in
20:08 69.2 °F 56.9 °F 29.91 in West 2.6 mph 3.5 mph 65 % 0.00 in
20:13 69.0 °F 56.7 °F 29.91 in WSW 1.4 mph 3.5 mph 65 % 0.00 in
20:18 68.8 °F 55.7 °F 29.91 in SW 0.7 mph 3.5 mph 63 % 0.00 in
20:23 68.7 °F 55.6 °F 29.91 in West 0.2 mph 4.6 mph 63 % 0.00 in
20:28 68.6 °F 55.9 °F 29.91 in West 0.1 mph   64 % 0.00 in
20:33 68.5 °F 56.3 °F 29.91 in Calm     65 % 0.00 in
20:35 68.5 °F 56.3 °F 29.91 in SSE 0.6 mph   65 % 0.00 in
20:40 68.4 °F 57.0 °F 29.91 in Calm   1.2 mph 67 % 0.00 in
20:45 68.3 °F 57.7 °F 29.91 in West 1.3 mph 2.3 mph 69 % 0.00 in
20:50 68.2 °F 58.0 °F 29.91 in Calm     70 % 0.00 in
20:55 68.1 °F 57.9 °F 29.91 in Calm     70 % 0.00 in
21:00 67.9 °F 57.8 °F 29.92 in Calm     70 % 0.00 in
21:05 67.8 °F 58.4 °F 29.92 in Calm     72 % 0.00 in
21:10 67.6 °F 58.6 °F 29.92 in Calm     73 % 0.00 in
21:15 67.4 °F 58.4 °F 29.92 in Calm     73 % 0.00 in
21:20 67.2 °F 58.2 °F 29.92 in Calm     73 % 0.00 in
21:25 67.0 °F 58.1 °F 29.92 in Calm     73 % 0.00 in
21:30 66.8 °F 57.9 °F 29.92 in Calm     73 % 0.00 in
21:35 66.7 °F 57.8 °F 29.92 in Calm     73 % 0.00 in
21:40 66.6 °F 57.7 °F 29.92 in Calm     73 % 0.00 in
21:45 66.4 °F 57.5 °F 29.92 in Calm     73 % 0.00 in
21:50 66.3 °F 57.4 °F 29.92 in Calm     73 % 0.00 in
21:55 66.2 °F 57.7 °F 29.92 in Calm     74 % 0.00 in
22:00 66.1 °F 57.6 °F 29.93 in Calm     74 % 0.00 in
22:05 66.0 °F 57.1 °F 29.93 in Calm     73 % 0.00 in
22:10 65.9 °F 57.0 °F 29.93 in Calm     73 % 0.00 in
22:15 65.8 °F 56.9 °F 29.93 in Calm     73 % 0.00 in
22:20 65.7 °F 57.2 °F 29.94 in Calm     74 % 0.00 in
22:25 65.6 °F 57.1 °F 29.94 in Calm     74 % 0.00 in
22:30 65.5 °F 57.0 °F 29.94 in Calm     74 % 0.00 in
22:35 65.4 °F 57.3 °F 29.94 in Calm     75 % 0.00 in
22:40 65.2 °F 57.1 °F 29.94 in Calm     75 % 0.00 in
22:45 65.1 °F 57.3 °F 29.95 in Calm     76 % 0.00 in
22:50 64.9 °F 57.5 °F 29.95 in Calm     77 % 0.00 in
22:55 64.8 °F 57.4 °F 29.95 in Calm     77 % 0.00 in
23:01 64.6 °F 57.9 °F 29.96 in Calm     79 % 0.00 in
23:06 64.4 °F 58.1 °F 29.95 in Calm     80 % 0.00 in
23:11 64.3 °F 58.0 °F 29.96 in Calm     80 % 0.00 in
23:16 64.0 °F 57.7 °F 29.96 in Calm     80 % 0.00 in
23:21 63.9 °F 57.9 °F 29.96 in Calm     81 % 0.00 in
23:26 63.7 °F 57.8 °F 29.96 in Calm     81 % 0.00 in
23:31 63.5 °F 57.9 °F 29.96 in Calm     82 % 0.00 in
23:36 63.3 °F 58.1 °F 29.96 in Calm     83 % 0.00 in
23:41 63.1 °F 57.9 °F 29.97 in Calm     83 % 0.00 in
23:45 62.9 °F 57.7 °F 29.97 in Calm     83 % 0.00 in
23:51 62.8 °F 57.9 °F 29.97 in Calm     84 % 0.00 in
23:56 62.5 °F 57.6 °F 29.97 in Calm     84 % 0.00 in
Crab Meadow Weather
Compliments of Weather Underground - 3 mb

Script developed by  Jim McMurry - jmcmurry@mwt.net Adapted for the template by  Wim van der Kuil - Leuven-Template.eu

Extremes: By average annual rainfall, the wettest place in the world is Mawslynram, in Meghalaya State, India with 467 1/2 inches per annum.